Main page
METAR-TAF:

METAR-TAF

Airports :

Taylor County Airport

Medford, Wisconsin, United States

latitude: 45-06-04N, longitude: 090-18-12W, elevation: 1469 ft

Current weather observation

The report was made 31 minutes ago, at 07:15 UTC
Wind 15 mph from the South/Southwest with gusts up to 18 mph
Temperature 57°F
Humidity 94%
Pressure 29.37 in. Hg
Visibility: 10 miles
Overcast at a height of 800 ft

METAR: KMDZ 220715Z AUTO 21013G16KT 10SM OVC008 14/13 A2937 RMK AO2 T01420125 PWINO

Time: 02:46 (07:46 UTC)


TAF: missing

Weather observations and forecasts of more than 4000 airports (METAR and TAF reports).

The available stations are represented by yellow and red dots on the map.

Hover mouse over dot to see the name of the station.

Then click to see weather observations and forecasts.

To change the map : click on the green buttons with a black cross to zoom in, on the green button with a dash to zoom out, or on the green arrows for adjacent maps.


METAR-TAF: